sensor_id;sensor_type;location;lat;lon;timestamp;pressure;altitude;pressure_sealevel;temperature;humidity
10658;BME280;5377;43.276;26.930;2022-12-16T06:31:26;99087.28;;;7.35;100.00
10658;BME280;5377;43.276;26.930;2022-12-16T06:41:18;99082.19;;;7.25;100.00
10658;BME280;5377;43.276;26.930;2022-12-16T07:13:18;99110.09;;;8.18;100.00
10658;BME280;5377;43.276;26.930;2022-12-16T07:16:04;99090.84;;;8.22;100.00
10658;BME280;5377;43.276;26.930;2022-12-16T07:29:27;99066.94;;;8.50;100.00
10658;BME280;5377;43.276;26.930;2022-12-16T07:49:21;99023.59;;;8.69;100.00
10658;BME280;5377;43.276;26.930;2022-12-16T08:23:03;99056.19;;;10.71;100.00
10658;BME280;5377;43.276;26.930;2022-12-16T08:46:38;99059.41;;;11.52;100.00
10658;BME280;5377;43.276;26.930;2022-12-16T08:49:42;99023.75;;;11.38;100.00
10658;BME280;5377;43.276;26.930;2022-12-16T08:59:14;99029.75;;;11.98;100.00
10658;BME280;5377;43.276;26.930;2022-12-16T09:09:02;99005.34;;;12.38;100.00
10658;BME280;5377;43.276;26.930;2022-12-16T09:18:35;98998.81;;;12.59;100.00
10658;BME280;5377;43.276;26.930;2022-12-16T09:42:00;98945.41;;;14.50;100.00
10658;BME280;5377;43.276;26.930;2022-12-16T09:44:53;98920.50;;;15.42;100.00
10658;BME280;5377;43.276;26.930;2022-12-16T09:48:04;98898.31;;;16.42;100.00
10658;BME280;5377;43.276;26.930;2022-12-16T09:50:52;98898.94;;;16.82;100.00
10658;BME280;5377;43.276;26.930;2022-12-16T09:53:41;98873.97;;;16.97;100.00
10658;BME280;5377;43.276;26.930;2022-12-16T09:59:52;98871.75;;;18.08;100.00
10658;BME280;5377;43.276;26.930;2022-12-16T10:02:39;98838.72;;;18.49;100.00
10658;BME280;5377;43.276;26.930;2022-12-16T10:09:09;98845.63;;;19.19;93.56
10658;BME280;5377;43.276;26.930;2022-12-16T10:12:00;98781.22;;;18.99;91.07
10658;BME280;5377;43.276;26.930;2022-12-16T10:14:55;98843.66;;;20.02;86.28
10658;BME280;5377;43.276;26.930;2022-12-16T10:17:44;98844.22;;;19.94;84.35
10658;BME280;5377;43.276;26.930;2022-12-16T10:20:34;98851.81;;;19.87;89.89
10658;BME280;5377;43.276;26.930;2022-12-16T10:23:42;98848.28;;;20.02;84.36
10658;BME280;5377;43.276;26.930;2022-12-16T10:26:38;98842.31;;;20.66;83.61
10658;BME280;5377;43.276;26.930;2022-12-16T10:29:26;98821.56;;;20.80;80.77
10658;BME280;5377;43.276;26.930;2022-12-16T10:32:18;98830.38;;;21.36;78.78
10658;BME280;5377;43.276;26.930;2022-12-16T10:35:16;98697.16;;;20.80;75.30
10658;BME280;5377;43.276;26.930;2022-12-16T10:38:02;98783.28;;;21.31;74.28
10658;BME280;5377;43.276;26.930;2022-12-16T10:40:49;98827.28;;;20.78;76.11
10658;BME280;5377;43.276;26.930;2022-12-16T10:43:35;98838.19;;;21.53;76.83
10658;BME280;5377;43.276;26.930;2022-12-16T10:46:25;98758.34;;;20.98;77.07
10658;BME280;5377;43.276;26.930;2022-12-16T10:49:15;98836.41;;;21.77;74.98
10658;BME280;5377;43.276;26.930;2022-12-16T10:51:59;98827.63;;;21.86;72.68
10658;BME280;5377;43.276;26.930;2022-12-16T10:54:50;98810.34;;;22.00;73.21
10658;BME280;5377;43.276;26.930;2022-12-16T10:57:44;98816.81;;;21.70;73.16
10658;BME280;5377;43.276;26.930;2022-12-16T11:00:39;98812.94;;;22.16;70.33
10658;BME280;5377;43.276;26.930;2022-12-16T11:03:26;98806.63;;;22.20;69.28
10658;BME280;5377;43.276;26.930;2022-12-16T11:06:15;98782.91;;;21.82;70.14
10658;BME280;5377;43.276;26.930;2022-12-16T11:09:14;98793.38;;;22.37;69.90
10658;BME280;5377;43.276;26.930;2022-12-16T11:12:13;98790.09;;;22.93;68.67
10658;BME280;5377;43.276;26.930;2022-12-16T11:14:58;98713.91;;;22.68;67.89
10658;BME280;5377;43.276;26.930;2022-12-16T11:18:00;98783.03;;;23.11;65.63
10658;BME280;5377;43.276;26.930;2022-12-16T11:20:45;98768.38;;;23.63;64.86
10658;BME280;5377;43.276;26.930;2022-12-16T11:23:39;98698.63;;;23.10;63.84
10658;BME280;5377;43.276;26.930;2022-12-16T11:26:23;98716.63;;;23.48;61.67
10658;BME280;5377;43.276;26.930;2022-12-16T11:29:10;98779.47;;;23.72;61.45
10658;BME280;5377;43.276;26.930;2022-12-16T11:32:01;98769.47;;;24.14;61.35
10658;BME280;5377;43.276;26.930;2022-12-16T11:34:51;98766.72;;;24.46;60.29
10658;BME280;5377;43.276;26.930;2022-12-16T11:37:37;98766.63;;;24.38;59.53
10658;BME280;5377;43.276;26.930;2022-12-16T11:40:25;98671.38;;;24.21;59.12
10658;BME280;5377;43.276;26.930;2022-12-16T11:43:11;98745.94;;;24.86;58.81
10658;BME280;5377;43.276;26.930;2022-12-16T11:45:57;98737.84;;;25.09;57.62
10658;BME280;5377;43.276;26.930;2022-12-16T11:48:44;98742.38;;;25.49;56.16
10658;BME280;5377;43.276;26.930;2022-12-16T11:51:32;98730.88;;;25.25;54.50
10658;BME280;5377;43.276;26.930;2022-12-16T11:54:22;98746.63;;;25.56;55.49
10658;BME280;5377;43.276;26.930;2022-12-16T11:57:16;98716.13;;;24.71;54.75
10658;BME280;5377;43.276;26.930;2022-12-16T12:00:04;98731.34;;;24.36;56.51
10658;BME280;5377;43.276;26.930;2022-12-16T12:02:55;98760.72;;;23.98;56.99
10658;BME280;5377;43.276;26.930;2022-12-16T12:05:54;98756.34;;;23.64;58.00
10658;BME280;5377;43.276;26.930;2022-12-16T12:08:49;98680.69;;;23.03;59.02
10658;BME280;5377;43.276;26.930;2022-12-16T12:11:36;98686.38;;;23.07;59.42
10658;BME280;5377;43.276;26.930;2022-12-16T12:14:32;98754.75;;;23.96;58.38
10658;BME280;5377;43.276;26.930;2022-12-16T12:17:24;98694.28;;;23.27;57.74
10658;BME280;5377;43.276;26.930;2022-12-16T12:20:28;98749.78;;;24.31;57.29
10658;BME280;5377;43.276;26.930;2022-12-16T12:23:20;98749.50;;;24.13;56.31
10658;BME280;5377;43.276;26.930;2022-12-16T12:26:10;98761.41;;;23.52;57.75
10658;BME280;5377;43.276;26.930;2022-12-16T12:29:04;98740.66;;;22.42;60.65
10658;BME280;5377;43.276;26.930;2022-12-16T12:32:00;98761.69;;;23.13;60.44
10658;BME280;5377;43.276;26.930;2022-12-16T12:34:52;98754.53;;;23.55;58.91
10658;BME280;5377;43.276;26.930;2022-12-16T12:37:43;98761.75;;;23.08;59.08
10658;BME280;5377;43.276;26.930;2022-12-16T12:40:40;98769.59;;;23.15;59.24
10658;BME280;5377;43.276;26.930;2022-12-16T12:43:42;98773.69;;;22.93;59.36
10658;BME280;5377;43.276;26.930;2022-12-16T12:46:34;98777.00;;;22.37;62.00
10658;BME280;5377;43.276;26.930;2022-12-16T12:49:28;98778.47;;;22.54;61.45
10658;BME280;5377;43.276;26.930;2022-12-16T12:52:48;98771.75;;;22.70;61.18
10658;BME280;5377;43.276;26.930;2022-12-16T12:55:43;98790.19;;;22.83;60.77
10658;BME280;5377;43.276;26.930;2022-12-16T12:58:29;98788.56;;;22.58;61.36
10658;BME280;5377;43.276;26.930;2022-12-16T13:01:30;98793.66;;;22.89;60.92
10658;BME280;5377;43.276;26.930;2022-12-16T13:04:17;98800.56;;;22.57;63.32
10658;BME280;5377;43.276;26.930;2022-12-16T13:07:05;98792.59;;;22.90;63.40
10658;BME280;5377;43.276;26.930;2022-12-16T13:10:13;98779.28;;;22.30;65.01
10658;BME280;5377;43.276;26.930;2022-12-16T13:13:28;98801.50;;;22.14;67.41
10658;BME280;5377;43.276;26.930;2022-12-16T13:19:52;98815.19;;;21.20;74.03
10658;BME280;5377;43.276;26.930;2022-12-16T13:22:38;98821.22;;;21.02;76.24
10658;BME280;5377;43.276;26.930;2022-12-16T13:25:32;98751.25;;;19.92;81.34
10658;BME280;5377;43.276;26.930;2022-12-16T13:28:28;98821.09;;;20.37;83.28
10658;BME280;5377;43.276;26.930;2022-12-16T13:31:14;98811.88;;;20.13;85.76
10658;BME280;5377;43.276;26.930;2022-12-16T13:34:04;98823.56;;;19.83;87.95
10658;BME280;5377;43.276;26.930;2022-12-16T13:36:54;98828.44;;;19.86;88.67
10658;BME280;5377;43.276;26.930;2022-12-16T13:39:42;98829.81;;;19.88;89.16
10658;BME280;5377;43.276;26.930;2022-12-16T13:42:47;98833.63;;;19.92;89.30
10658;BME280;5377;43.276;26.930;2022-12-16T13:45:37;98810.19;;;19.71;89.82
10658;BME280;5377;43.276;26.930;2022-12-16T13:48:36;98823.22;;;19.54;90.54
10658;BME280;5377;43.276;26.930;2022-12-16T13:51:57;98832.88;;;19.19;94.23
10658;BME280;5377;43.276;26.930;2022-12-16T13:54:48;98831.75;;;19.10;96.78
10658;BME280;5377;43.276;26.930;2022-12-16T13:57:36;98841.19;;;18.55;100.00
10658;BME280;5377;43.276;26.930;2022-12-16T14:00:24;98845.81;;;18.18;100.00
10658;BME280;5377;43.276;26.930;2022-12-16T14:03:19;98862.81;;;17.81;100.00
10658;BME280;5377;43.276;26.930;2022-12-16T14:06:10;98870.03;;;17.70;100.00
10658;BME280;5377;43.276;26.930;2022-12-16T14:08:56;98873.09;;;17.57;100.00
10658;BME280;5377;43.276;26.930;2022-12-16T14:11:49;98872.88;;;17.37;100.00
10658;BME280;5377;43.276;26.930;2022-12-16T14:14:41;98882.00;;;17.31;100.00
10658;BME280;5377;43.276;26.930;2022-12-16T14:17:32;98874.06;;;17.24;100.00
10658;BME280;5377;43.276;26.930;2022-12-16T14:20:34;98873.78;;;16.82;100.00
10658;BME280;5377;43.276;26.930;2022-12-16T14:23:29;98886.88;;;16.90;100.00
10658;BME280;5377;43.276;26.930;2022-12-16T14:26:34;98860.25;;;16.82;100.00
10658;BME280;5377;43.276;26.930;2022-12-16T14:29:24;98888.00;;;16.94;100.00
10658;BME280;5377;43.276;26.930;2022-12-16T14:32:20;98885.44;;;16.82;100.00
10658;BME280;5377;43.276;26.930;2022-12-16T14:38:36;98883.59;;;16.66;100.00
10658;BME280;5377;43.276;26.930;2022-12-16T14:41:22;98885.25;;;16.56;100.00
10658;BME280;5377;43.276;26.930;2022-12-16T14:44:25;98890.63;;;16.34;100.00
10658;BME280;5377;43.276;26.930;2022-12-16T14:50:32;98909.38;;;15.95;100.00
10658;BME280;5377;43.276;26.930;2022-12-16T14:57:09;98894.63;;;15.69;100.00
10658;BME280;5377;43.276;26.930;2022-12-16T15:03:11;98886.88;;;15.21;100.00
10658;BME280;5377;43.276;26.930;2022-12-16T15:09:45;98904.03;;;14.91;100.00
10658;BME280;5377;43.276;26.930;2022-12-16T15:12:35;98916.59;;;14.97;100.00
10658;BME280;5377;43.276;26.930;2022-12-16T15:15:28;98917.75;;;14.90;100.00
10658;BME280;5377;43.276;26.930;2022-12-16T15:18:16;98914.97;;;14.61;100.00
10658;BME280;5377;43.276;26.930;2022-12-16T15:21:02;98920.72;;;14.65;100.00
10658;BME280;5377;43.276;26.930;2022-12-16T15:34:29;98935.53;;;13.91;100.00
10658;BME280;5377;43.276;26.930;2022-12-16T15:47:34;98923.94;;;13.42;100.00
10658;BME280;5377;43.276;26.930;2022-12-16T16:01:00;98951.16;;;13.34;100.00
10658;BME280;5377;43.276;26.930;2022-12-16T16:13:58;98948.41;;;12.97;100.00
10658;BME280;5377;43.276;26.930;2022-12-16T16:55:33;98980.91;;;12.46;100.00
10658;BME280;5377;43.276;26.930;2022-12-16T16:58:22;98987.09;;;12.46;100.00
10658;BME280;5377;43.276;26.930;2022-12-16T17:01:10;98946.44;;;12.18;100.00
10658;BME280;5377;43.276;26.930;2022-12-16T17:07:21;98981.78;;;12.40;100.00
10658;BME280;5377;43.276;26.930;2022-12-16T17:10:06;98979.59;;;12.30;100.00
10658;BME280;5377;43.276;26.930;2022-12-16T17:20:14;98998.81;;;12.27;100.00
10658;BME280;5377;43.276;26.930;2022-12-16T17:26:35;98986.91;;;12.16;100.00
10658;BME280;5377;43.276;26.930;2022-12-16T17:32:45;99006.66;;;12.29;100.00
10658;BME280;5377;43.276;26.930;2022-12-16T17:35:43;98998.34;;;12.37;100.00
10658;BME280;5377;43.276;26.930;2022-12-16T17:38:27;99006.94;;;12.45;100.00
10658;BME280;5377;43.276;26.930;2022-12-16T17:51:27;98966.63;;;11.89;100.00
10658;BME280;5377;43.276;26.930;2022-12-16T17:54:12;98991.03;;;12.12;100.00
10658;BME280;5377;43.276;26.930;2022-12-16T18:00:24;98996.84;;;12.09;100.00
10658;BME280;5377;43.276;26.930;2022-12-16T18:03:08;98985.84;;;11.86;100.00
10658;BME280;5377;43.276;26.930;2022-12-16T18:12:46;98955.84;;;11.96;100.00
10658;BME280;5377;43.276;26.930;2022-12-16T18:22:22;98944.91;;;11.97;100.00
10658;BME280;5377;43.276;26.930;2022-12-16T18:25:22;98955.19;;;12.00;100.00
10658;BME280;5377;43.276;26.930;2022-12-16T18:28:07;98943.69;;;11.93;100.00
10658;BME280;5377;43.276;26.930;2022-12-16T18:30:52;98950.09;;;11.92;100.00
10658;BME280;5377;43.276;26.930;2022-12-16T18:37:09;98979.03;;;11.77;100.00
10658;BME280;5377;43.276;26.930;2022-12-16T18:47:00;98960.06;;;11.78;100.00
10658;BME280;5377;43.276;26.930;2022-12-16T18:53:09;98967.66;;;11.88;100.00
10658;BME280;5377;43.276;26.930;2022-12-16T19:03:12;98979.41;;;11.94;100.00
10658;BME280;5377;43.276;26.930;2022-12-16T19:09:19;98987.63;;;11.99;100.00
10658;BME280;5377;43.276;26.930;2022-12-16T19:19:07;98980.72;;;11.71;100.00
10658;BME280;5377;43.276;26.930;2022-12-16T19:25:25;98930.53;;;11.34;100.00
10658;BME280;5377;43.276;26.930;2022-12-16T19:31:31;98984.97;;;11.92;100.00
10658;BME280;5377;43.276;26.930;2022-12-16T19:48:00;99003.63;;;11.80;100.00
10658;BME280;5377;43.276;26.930;2022-12-16T19:50:44;99011.88;;;11.85;100.00
10658;BME280;5377;43.276;26.930;2022-12-16T19:57:02;98998.88;;;11.82;100.00
10658;BME280;5377;43.276;26.930;2022-12-16T19:59:46;99005.81;;;11.97;100.00
10658;BME280;5377;43.276;26.930;2022-12-16T20:16:37;99003.53;;;12.00;100.00
10658;BME280;5377;43.276;26.930;2022-12-16T20:36:52;98998.97;;;12.01;100.00
10658;BME280;5377;43.276;26.930;2022-12-16T20:39:45;98996.59;;;11.86;100.00
10658;BME280;5377;43.276;26.930;2022-12-16T20:49:17;98972.38;;;11.41;100.00
10658;BME280;5377;43.276;26.930;2022-12-16T21:26:23;98994.97;;;11.65;100.00
10658;BME280;5377;43.276;26.930;2022-12-16T22:53:07;98961.81;;;10.82;100.00
10658;BME280;5377;43.276;26.930;2022-12-16T23:09:33;98946.59;;;10.56;100.00
